Redwood City, CA (94063)

1:24 AM PDT on November 01, 2014 (GMT -0700)
Edgewood Park | Change Station
CLOSE
Current Station
Personal Weather Station
Location: Redwood City, CA
Elevation: 53 ft
Nearby Weather Stations

Elev 53 ft 37.48 °N, 122.25 °W | Updated 8 seconds ago

Overcast
Overcast
52.3 °F
Feels Like 52.3 °F
N
-
Wind Variable Wind from North

Today
High -- | Low -- °F
--% Chance of Precip.
Yesterday
High -- | Low -- °F
Precip. -- in
7:33 AM 6:10 PM
Waxing Gibbous, 64% visible
Pressure 29.77 in
Visibility 10.0 miles
Clouds Overcast 11000 ft
Dew Point 52 °F
Humidity 98%
Rainfall 0.12 in
Snow Depth Not available.
UV 0 out of 12
Pollen .50 out of 12
Air Quality Not available.
Flu Activity Not available.
METAR KSQL 010810Z AUTO 25003KT 10SM OVC110 13/09 A2977 RMK AO2

More Conditions Fewer Conditions

Pressure 29.77 in
Visibility 10.0 miles
Clouds Overcast 11000 ft
Dew Point 52 °F
Humidity 98%
Rainfall 0.12 in
Snow Depth Not available.
UV 0 out of 12
Pollen .50 out of 12
Air Quality Not available.
Flu Activity Not available.
METAR KSQL 010810Z AUTO 25003KT 10SM OVC110 13/09 A2977 RMK AO2

More Conditions Fewer Conditions

10-Day Weather Forecast

Almanac

Astronomy

Nov. 01, 2014 Rise Set
Actual Time
Civil Twilight
Nautical Twilight
Astronomical Twilight
Moon
Length of Visible Light
Length of Day
Tomorrow will be .
, % of the Moon is Illuminated

Today's Extremes

State Highs State Lows

Community

WunderPhotos

Upload Photos

1,766,866 photos uploaded!

WunderBlogs® & News

Nearby

Air Quality

  Air Quality AQ Index Pollutant
Not available.

Snow Depth

Station Depth Elevation

Earthquake Activity

City Distance Mag. Time & Date
Minimum magnitude displayed is 2.5.

Coastal Water Temperatures

Place Temperature

Nearby Weather Stations